<?xml version="1.0" encoding="UTF-8" standalone="no" ?><gpx xmlns="http://www.topografix.com/GPX/1/1" xmlns:gpxx="http://www.garmin.com/xmlschemas/GpxExtensions/v3" xmlns:wptx1="http://www.garmin.com/xmlschemas/WaypointExtension/v1" xmlns:gpxtpx="http://www.garmin.com/xmlschemas/TrackPointExtension/v1" creator="GuideVTT.com" version="1.1" xmlns:xsi="http://www.w3.org/2001/XMLSchema-instance" xsi:schemaLocation="http://www.topografix.com/GPX/1/1 http://www.topografix.com/GPX/1/1/gpx.xsd http://www.garmin.com/xmlschemas/GpxExtensions/v3 http://www8.garmin.com/xmlschemas/GpxExtensionsv3.xsd http://www.garmin.com/xmlschemas/WaypointExtension/v1 http://www8.garmin.com/xmlschemas/WaypointExtensionv1.xsd http://www.garmin.com/xmlschemas/TrackPointExtension/v1 http://www.garmin.com/xmlschemas/TrackPointExtensionv1.xsd">
<metadata><link href="http://www.garmin.com"><text>Garmin International</text></link><time>2013-06-22T15:13:50Z</time></metadata>
<trk><name>parcours14.gpx</name><extensions><gpxx:TrackExtension><gpxx:DisplayColor>Cyan</gpxx:DisplayColor></gpxx:TrackExtension></extensions><trkseg>
<trkpt lat="45.95221670" lon="7.20773330"><ele>1981</ele><time>2003-08-23T13:23:52Z</time></trkpt>
<trkpt lat="45.95200000" lon="7.20788330"><ele>1979</ele><time>2003-08-23T13:24:04Z</time></trkpt>
<trkpt lat="45.95131670" lon="7.20788330"><ele>1978</ele><time>2003-08-23T13:24:19Z</time></trkpt>
<trkpt lat="45.95131670" lon="7.20810000"><ele>1978</ele><time>2003-08-23T13:24:25Z</time></trkpt>
<trkpt lat="45.95248330" lon="7.20846670"><ele>1975</ele><time>2003-08-23T13:24:53Z</time></trkpt>
<trkpt lat="45.95301670" lon="7.20881670"><ele>1977</ele><time>2003-08-23T13:25:10Z</time></trkpt>
<trkpt lat="45.95343330" lon="7.20916670"><ele>1978</ele><time>2003-08-23T13:25:23Z</time></trkpt>
<trkpt lat="45.95388330" lon="7.20945000"><ele>1976</ele><time>2003-08-23T13:25:35Z</time></trkpt>
<trkpt lat="45.95433330" lon="7.20980000"><ele>1975</ele><time>2003-08-23T13:25:44Z</time></trkpt>
<trkpt lat="45.95483330" lon="7.21001670"><ele>1973</ele><time>2003-08-23T13:25:53Z</time></trkpt>
<trkpt lat="45.95560000" lon="7.21021670"><ele>1971</ele><time>2003-08-23T13:26:09Z</time></trkpt>
<trkpt lat="45.95625000" lon="7.21028330"><ele>1969</ele><time>2003-08-23T13:26:23Z</time></trkpt>
<trkpt lat="45.95698330" lon="7.21028330"><ele>1968</ele><time>2003-08-23T13:26:39Z</time></trkpt>
<trkpt lat="45.95741670" lon="7.21026670"><ele>1968</ele><time>2003-08-23T13:26:51Z</time></trkpt>
<trkpt lat="45.95808330" lon="7.21010000"><ele>1976</ele><time>2003-08-23T13:27:30Z</time></trkpt>
<trkpt lat="45.95828330" lon="7.20996670"><ele>1979</ele><time>2003-08-23T13:27:44Z</time></trkpt>
<trkpt lat="45.95855000" lon="7.20996670"><ele>1981</ele><time>2003-08-23T13:27:59Z</time></trkpt>
<trkpt lat="45.95870000" lon="7.21025000"><ele>1982</ele><time>2003-08-23T13:28:10Z</time></trkpt>
<trkpt lat="45.95885000" lon="7.21063330"><ele>1984</ele><time>2003-08-23T13:28:25Z</time></trkpt>
<trkpt lat="45.95886670" lon="7.21130000"><ele>1982</ele><time>2003-08-23T13:28:47Z</time></trkpt>
<trkpt lat="45.95931670" lon="7.21148330"><ele>1983</ele><time>2003-08-23T13:29:15Z</time></trkpt>
<trkpt lat="45.95946670" lon="7.21160000"><ele>1984</ele><time>2003-08-23T13:29:30Z</time></trkpt>
<trkpt lat="45.95961670" lon="7.21146670"><ele>2007</ele><time>2003-08-23T13:31:44Z</time></trkpt>
<trkpt lat="45.95981670" lon="7.21155000"><ele>2006</ele><time>2003-08-23T13:31:59Z</time></trkpt>
<trkpt lat="45.96050000" lon="7.21168330"><ele>2006</ele><time>2003-08-23T13:32:49Z</time></trkpt>
<trkpt lat="45.96091670" lon="7.21163330"><ele>2007</ele><time>2003-08-23T13:33:15Z</time></trkpt>
<trkpt lat="45.96148330" lon="7.21170000"><ele>2013</ele><time>2003-08-23T13:34:04Z</time></trkpt>
<trkpt lat="45.96185000" lon="7.21190000"><ele>2018</ele><time>2003-08-23T13:34:37Z</time></trkpt>
<trkpt lat="45.96200000" lon="7.21205000"><ele>2022</ele><time>2003-08-23T13:34:51Z</time></trkpt>
<trkpt lat="45.96221670" lon="7.21210000"><ele>2026</ele><time>2003-08-23T13:35:08Z</time></trkpt>
<trkpt lat="45.96266670" lon="7.21205000"><ele>2032</ele><time>2003-08-23T13:35:49Z</time></trkpt>
<trkpt lat="45.96288330" lon="7.21210000"><ele>2029</ele><time>2003-08-23T13:36:11Z</time></trkpt>
<trkpt lat="45.96335000" lon="7.21233330"><ele>2048</ele><time>2003-08-23T13:37:07Z</time></trkpt>
<trkpt lat="45.96343330" lon="7.21233330"><ele>2053</ele><time>2003-08-23T13:37:18Z</time></trkpt>
<trkpt lat="45.96373330" lon="7.21265000"><ele>2058</ele><time>2003-08-23T13:37:46Z</time></trkpt>
<trkpt lat="45.96413330" lon="7.21265000"><ele>2065</ele><time>2003-08-23T13:38:19Z</time></trkpt>
<trkpt lat="45.96430000" lon="7.21273330"><ele>2065</ele><time>2003-08-23T13:38:34Z</time></trkpt>
<trkpt lat="45.96446670" lon="7.21273330"><ele>2067</ele><time>2003-08-23T13:38:51Z</time></trkpt>
<trkpt lat="45.96466670" lon="7.21286670"><ele>2068</ele><time>2003-08-23T13:39:06Z</time></trkpt>
<trkpt lat="45.96488330" lon="7.21295000"><ele>2075</ele><time>2003-08-23T13:39:29Z</time></trkpt>
<trkpt lat="45.96498330" lon="7.21301670"><ele>2079</ele><time>2003-08-23T13:39:42Z</time></trkpt>
<trkpt lat="45.96515000" lon="7.21320000"><ele>2084</ele><time>2003-08-23T13:40:01Z</time></trkpt>
<trkpt lat="45.96526670" lon="7.21325000"><ele>2086</ele><time>2003-08-23T13:40:13Z</time></trkpt>
<trkpt lat="45.96526670" lon="7.21333330"><ele>2088</ele><time>2003-08-23T13:40:18Z</time></trkpt>
<trkpt lat="45.96498330" lon="7.21330000"><ele>2094</ele><time>2003-08-23T13:40:45Z</time></trkpt>
<trkpt lat="45.96470000" lon="7.21335000"><ele>2101</ele><time>2003-08-23T13:41:13Z</time></trkpt>
<trkpt lat="45.96446670" lon="7.21333330"><ele>2105</ele><time>2003-08-23T13:41:34Z</time></trkpt>
<trkpt lat="45.96431670" lon="7.21338330"><ele>2106</ele><time>2003-08-23T13:41:48Z</time></trkpt>
<trkpt lat="45.96430000" lon="7.21345000"><ele>2106</ele><time>2003-08-23T13:41:53Z</time></trkpt>
<trkpt lat="45.96461670" lon="7.21353330"><ele>2109</ele><time>2003-08-23T13:42:20Z</time></trkpt>
<trkpt lat="45.96488330" lon="7.21365000"><ele>2115</ele><time>2003-08-23T13:42:48Z</time></trkpt>
<trkpt lat="45.96490000" lon="7.21370000"><ele>2115</ele><time>2003-08-23T13:42:50Z</time></trkpt>
<trkpt lat="45.96481670" lon="7.21413330"><ele>2119</ele><time>2003-08-23T13:43:22Z</time></trkpt>
<trkpt lat="45.96483330" lon="7.21430000"><ele>2122</ele><time>2003-08-23T13:43:37Z</time></trkpt>
<trkpt lat="45.96526670" lon="7.21436670"><ele>2136</ele><time>2003-08-23T13:45:25Z</time></trkpt>
<trkpt lat="45.96540000" lon="7.21443330"><ele>2138</ele><time>2003-08-23T13:45:38Z</time></trkpt>
<trkpt lat="45.96535000" lon="7.21480000"><ele>2143</ele><time>2003-08-23T13:46:04Z</time></trkpt>
<trkpt lat="45.96536670" lon="7.21491670"><ele>2143</ele><time>2003-08-23T13:46:13Z</time></trkpt>
<trkpt lat="45.96541670" lon="7.21503330"><ele>2144</ele><time>2003-08-23T13:46:21Z</time></trkpt>
<trkpt lat="45.96551670" lon="7.21516670"><ele>2147</ele><time>2003-08-23T13:46:36Z</time></trkpt>
<trkpt lat="45.96563330" lon="7.21511670"><ele>2148</ele><time>2003-08-23T13:47:06Z</time></trkpt>
<trkpt lat="45.96566670" lon="7.21490000"><ele>2150</ele><time>2003-08-23T13:47:20Z</time></trkpt>
<trkpt lat="45.96581670" lon="7.21481670"><ele>2153</ele><time>2003-08-23T13:47:35Z</time></trkpt>
<trkpt lat="45.96606670" lon="7.21490000"><ele>2158</ele><time>2003-08-23T13:48:00Z</time></trkpt>
<trkpt lat="45.96616670" lon="7.21490000"><ele>2160</ele><time>2003-08-23T13:48:12Z</time></trkpt>
<trkpt lat="45.96633330" lon="7.21503330"><ele>2164</ele><time>2003-08-23T13:48:29Z</time></trkpt>
<trkpt lat="45.96666670" lon="7.21505000"><ele>2167</ele><time>2003-08-23T13:48:57Z</time></trkpt>
<trkpt lat="45.96698330" lon="7.21525000"><ele>2175</ele><time>2003-08-23T13:49:31Z</time></trkpt>
<trkpt lat="45.96703330" lon="7.21561670"><ele>2179</ele><time>2003-08-23T13:49:59Z</time></trkpt>
<trkpt lat="45.96706670" lon="7.21580000"><ele>2182</ele><time>2003-08-23T13:50:13Z</time></trkpt>
<trkpt lat="45.96715000" lon="7.21601670"><ele>2184</ele><time>2003-08-23T13:50:28Z</time></trkpt>
<trkpt lat="45.96726670" lon="7.21625000"><ele>2187</ele><time>2003-08-23T13:50:45Z</time></trkpt>
<trkpt lat="45.96745000" lon="7.21653330"><ele>2192</ele><time>2003-08-23T13:51:14Z</time></trkpt>
<trkpt lat="45.96760000" lon="7.21661670"><ele>2194</ele><time>2003-08-23T13:51:27Z</time></trkpt>
<trkpt lat="45.96775000" lon="7.21655000"><ele>2197</ele><time>2003-08-23T13:51:41Z</time></trkpt>
<trkpt lat="45.96783330" lon="7.21630000"><ele>2202</ele><time>2003-08-23T13:51:56Z</time></trkpt>
<trkpt lat="45.96816670" lon="7.21588330"><ele>2206</ele><time>2003-08-23T13:52:30Z</time></trkpt>
<trkpt lat="45.96828330" lon="7.21576670"><ele>2209</ele><time>2003-08-23T13:52:45Z</time></trkpt>
<trkpt lat="45.96843330" lon="7.21570000"><ele>2212</ele><time>2003-08-23T13:53:14Z</time></trkpt>
<trkpt lat="45.96848330" lon="7.21580000"><ele>2211</ele><time>2003-08-23T13:53:56Z</time></trkpt>
<trkpt lat="45.96876670" lon="7.21603330"><ele>2218</ele><time>2003-08-23T13:54:32Z</time></trkpt>
<trkpt lat="45.96895000" lon="7.21628330"><ele>2226</ele><time>2003-08-23T13:54:59Z</time></trkpt>
<trkpt lat="45.96906670" lon="7.21645000"><ele>2229</ele><time>2003-08-23T13:55:14Z</time></trkpt>
<trkpt lat="45.96931670" lon="7.21666670"><ele>2234</ele><time>2003-08-23T13:55:45Z</time></trkpt>
<trkpt lat="45.96943330" lon="7.21670000"><ele>2235</ele><time>2003-08-23T13:55:56Z</time></trkpt>
<trkpt lat="45.96960000" lon="7.21658330"><ele>2238</ele><time>2003-08-23T13:56:17Z</time></trkpt>
<trkpt lat="45.96973330" lon="7.21655000"><ele>2240</ele><time>2003-08-23T13:56:30Z</time></trkpt>
<trkpt lat="45.96983330" lon="7.21645000"><ele>2241</ele><time>2003-08-23T13:56:44Z</time></trkpt>
<trkpt lat="45.96998330" lon="7.21628330"><ele>2243</ele><time>2003-08-23T13:57:05Z</time></trkpt>
<trkpt lat="45.97015000" lon="7.21598330"><ele>2250</ele><time>2003-08-23T13:57:32Z</time></trkpt>
<trkpt lat="45.97025000" lon="7.21586670"><ele>2252</ele><time>2003-08-23T13:57:45Z</time></trkpt>
<trkpt lat="45.97030000" lon="7.21591670"><ele>2254</ele><time>2003-08-23T13:57:53Z</time></trkpt>
<trkpt lat="45.97026670" lon="7.21623330"><ele>2259</ele><time>2003-08-23T13:58:18Z</time></trkpt>
<trkpt lat="45.97021670" lon="7.21645000"><ele>2262</ele><time>2003-08-23T13:58:34Z</time></trkpt>
<trkpt lat="45.97013330" lon="7.21663330"><ele>2264</ele><time>2003-08-23T13:58:49Z</time></trkpt>
<trkpt lat="45.97010000" lon="7.21693330"><ele>2268</ele><time>2003-08-23T13:59:10Z</time></trkpt>
<trkpt lat="45.96996670" lon="7.21726670"><ele>2272</ele><time>2003-08-23T13:59:38Z</time></trkpt>
<trkpt lat="45.96976670" lon="7.21755000"><ele>2277</ele><time>2003-08-23T14:00:08Z</time></trkpt>
<trkpt lat="45.96961670" lon="7.21766670"><ele>2280</ele><time>2003-08-23T14:00:29Z</time></trkpt>
<trkpt lat="45.96923330" lon="7.21786670"><ele>2289</ele><time>2003-08-23T14:01:20Z</time></trkpt>
<trkpt lat="45.96928330" lon="7.21796670"><ele>2290</ele><time>2003-08-23T14:01:32Z</time></trkpt>
<trkpt lat="45.96953330" lon="7.21801670"><ele>2293</ele><time>2003-08-23T14:01:57Z</time></trkpt>
<trkpt lat="45.96995000" lon="7.21800000"><ele>2298</ele><time>2003-08-23T14:02:38Z</time></trkpt>
<trkpt lat="45.97048330" lon="7.21810000"><ele>2308</ele><time>2003-08-23T14:03:54Z</time></trkpt>
<trkpt lat="45.97065000" lon="7.21808330"><ele>2311</ele><time>2003-08-23T14:04:15Z</time></trkpt>
<trkpt lat="45.97118330" lon="7.21793330"><ele>2324</ele><time>2003-08-23T14:05:19Z</time></trkpt>
<trkpt lat="45.97136670" lon="7.21773330"><ele>2326</ele><time>2003-08-23T14:05:44Z</time></trkpt>
<trkpt lat="45.97148330" lon="7.21765000"><ele>2327</ele><time>2003-08-23T14:05:56Z</time></trkpt>
<trkpt lat="45.97170000" lon="7.21765000"><ele>2328</ele><time>2003-08-23T14:06:10Z</time></trkpt>
<trkpt lat="45.97196670" lon="7.21790000"><ele>2332</ele><time>2003-08-23T14:06:37Z</time></trkpt>
<trkpt lat="45.97211670" lon="7.21801670"><ele>2333</ele><time>2003-08-23T14:06:51Z</time></trkpt>
<trkpt lat="45.97236670" lon="7.21815000"><ele>2335</ele><time>2003-08-23T14:07:15Z</time></trkpt>
<trkpt lat="45.97271670" lon="7.21825000"><ele>2341</ele><time>2003-08-23T14:07:44Z</time></trkpt>
<trkpt lat="45.97286670" lon="7.21835000"><ele>2343</ele><time>2003-08-23T14:08:00Z</time></trkpt>
<trkpt lat="45.97310000" lon="7.21876670"><ele>2348</ele><time>2003-08-23T14:08:27Z</time></trkpt>
<trkpt lat="45.97313330" lon="7.21901670"><ele>2351</ele><time>2003-08-23T14:08:45Z</time></trkpt>
<trkpt lat="45.97321670" lon="7.21928330"><ele>2353</ele><time>2003-08-23T14:09:02Z</time></trkpt>
<trkpt lat="45.97343330" lon="7.21945000"><ele>2357</ele><time>2003-08-23T14:09:24Z</time></trkpt>
<trkpt lat="45.97350000" lon="7.21958330"><ele>2360</ele><time>2003-08-23T14:09:36Z</time></trkpt>
<trkpt lat="45.97358330" lon="7.21966670"><ele>2362</ele><time>2003-08-23T14:09:45Z</time></trkpt>
<trkpt lat="45.97363330" lon="7.21980000"><ele>2364</ele><time>2003-08-23T14:09:58Z</time></trkpt>
<trkpt lat="45.97373330" lon="7.21996670"><ele>2366</ele><time>2003-08-23T14:10:16Z</time></trkpt>
<trkpt lat="45.97400000" lon="7.22031670"><ele>2375</ele><time>2003-08-23T14:11:00Z</time></trkpt>
<trkpt lat="45.97410000" lon="7.22036670"><ele>2376</ele><time>2003-08-23T14:11:10Z</time></trkpt>
<trkpt lat="45.97428330" lon="7.22055000"><ele>2378</ele><time>2003-08-23T14:11:28Z</time></trkpt>
<trkpt lat="45.97433330" lon="7.22056670"><ele>2384</ele><time>2003-08-23T14:12:12Z</time></trkpt>
<trkpt lat="45.97433330" lon="7.22063330"><ele>2382</ele><time>2003-08-23T14:18:55Z</time></trkpt>
<trkpt lat="45.97438330" lon="7.22070000"><ele>2383</ele><time>2003-08-23T14:19:06Z</time></trkpt>
<trkpt lat="45.97436670" lon="7.22073330"><ele>2383</ele><time>2003-08-23T14:19:10Z</time></trkpt>
<trkpt lat="45.97420000" lon="7.22065000"><ele>2385</ele><time>2003-08-23T14:19:30Z</time></trkpt>
<trkpt lat="45.97361670" lon="7.22050000"><ele>2396</ele><time>2003-08-23T14:20:40Z</time></trkpt>
<trkpt lat="45.97320000" lon="7.22031670"><ele>2403</ele><time>2003-08-23T14:21:27Z</time></trkpt>
<trkpt lat="45.97318330" lon="7.22041670"><ele>2404</ele><time>2003-08-23T14:21:38Z</time></trkpt>
<trkpt lat="45.97340000" lon="7.22063330"><ele>2409</ele><time>2003-08-23T14:22:20Z</time></trkpt>
<trkpt lat="45.97365000" lon="7.22100000"><ele>2416</ele><time>2003-08-23T14:22:57Z</time></trkpt>
<trkpt lat="45.97376670" lon="7.22118330"><ele>2419</ele><time>2003-08-23T14:23:13Z</time></trkpt>
<trkpt lat="45.97393330" lon="7.22136670"><ele>2423</ele><time>2003-08-23T14:23:32Z</time></trkpt>
<trkpt lat="45.97416670" lon="7.22181670"><ele>2431</ele><time>2003-08-23T14:24:12Z</time></trkpt>
<trkpt lat="45.97440000" lon="7.22206670"><ele>2436</ele><time>2003-08-23T14:24:45Z</time></trkpt>
<trkpt lat="45.97466670" lon="7.22226670"><ele>2440</ele><time>2003-08-23T14:25:13Z</time></trkpt>
<trkpt lat="45.97473330" lon="7.22233330"><ele>2441</ele><time>2003-08-23T14:25:24Z</time></trkpt>
<trkpt lat="45.97476670" lon="7.22241670"><ele>2442</ele><time>2003-08-23T14:25:33Z</time></trkpt>
<trkpt lat="45.97465000" lon="7.22235000"><ele>2444</ele><time>2003-08-23T14:25:46Z</time></trkpt>
<trkpt lat="45.97445000" lon="7.22233330"><ele>2446</ele><time>2003-08-23T14:26:01Z</time></trkpt>
<trkpt lat="45.97423330" lon="7.22206670"><ele>2446</ele><time>2003-08-23T14:26:21Z</time></trkpt>
<trkpt lat="45.97395000" lon="7.22188330"><ele>2445</ele><time>2003-08-23T14:26:35Z</time></trkpt>
<trkpt lat="45.97373330" lon="7.22160000"><ele>2445</ele><time>2003-08-23T14:26:47Z</time></trkpt>
<trkpt lat="45.97280000" lon="7.22103330"><ele>2442</ele><time>2003-08-23T14:27:29Z</time></trkpt>
<trkpt lat="45.97251670" lon="7.22070000"><ele>2441</ele><time>2003-08-23T14:27:42Z</time></trkpt>
<trkpt lat="45.97245000" lon="7.22036670"><ele>2440</ele><time>2003-08-23T14:27:50Z</time></trkpt>
<trkpt lat="45.97228330" lon="7.22006670"><ele>2440</ele><time>2003-08-23T14:28:55Z</time></trkpt>
<trkpt lat="45.97198330" lon="7.21990000"><ele>2439</ele><time>2003-08-23T14:29:07Z</time></trkpt>
<trkpt lat="45.97183330" lon="7.21995000"><ele>2440</ele><time>2003-08-23T14:30:00Z</time></trkpt>
<trkpt lat="45.97171670" lon="7.22005000"><ele>2439</ele><time>2003-08-23T14:30:23Z</time></trkpt>
<trkpt lat="45.97103330" lon="7.22041670"><ele>2435</ele><time>2003-08-23T14:30:47Z</time></trkpt>
<trkpt lat="45.97040000" lon="7.22086670"><ele>2434</ele><time>2003-08-23T14:31:08Z</time></trkpt>
<trkpt lat="45.96995000" lon="7.22093330"><ele>2432</ele><time>2003-08-23T14:31:19Z</time></trkpt>
<trkpt lat="45.96945000" lon="7.22106670"><ele>2431</ele><time>2003-08-23T14:31:32Z</time></trkpt>
<trkpt lat="45.96925000" lon="7.22123330"><ele>2430</ele><time>2003-08-23T14:31:38Z</time></trkpt>
<trkpt lat="45.96885000" lon="7.22123330"><ele>2429</ele><time>2003-08-23T14:31:47Z</time></trkpt>
<trkpt lat="45.96853330" lon="7.22151670"><ele>2428</ele><time>2003-08-23T14:31:55Z</time></trkpt>
<trkpt lat="45.96818330" lon="7.22143330"><ele>2428</ele><time>2003-08-23T14:32:05Z</time></trkpt>
<trkpt lat="45.96716670" lon="7.22140000"><ele>2425</ele><time>2003-08-23T14:32:54Z</time></trkpt>
<trkpt lat="45.96651670" lon="7.22148330"><ele>2423</ele><time>2003-08-23T14:33:18Z</time></trkpt>
<trkpt lat="45.96646670" lon="7.22158330"><ele>2422</ele><time>2003-08-23T14:34:05Z</time></trkpt>
<trkpt lat="45.96630000" lon="7.22160000"><ele>2424</ele><time>2003-08-23T14:34:52Z</time></trkpt>
<trkpt lat="45.96615000" lon="7.22170000"><ele>2423</ele><time>2003-08-23T14:35:16Z</time></trkpt>
<trkpt lat="45.96595000" lon="7.22163330"><ele>2422</ele><time>2003-08-23T14:35:23Z</time></trkpt>
<trkpt lat="45.96585000" lon="7.22151670"><ele>2421</ele><time>2003-08-23T14:35:27Z</time></trkpt>
<trkpt lat="45.96551670" lon="7.22128330"><ele>2420</ele><time>2003-08-23T14:35:40Z</time></trkpt>
<trkpt lat="45.96515000" lon="7.22116670"><ele>2418</ele><time>2003-08-23T14:35:50Z</time></trkpt>
<trkpt lat="45.96470000" lon="7.22091670"><ele>2417</ele><time>2003-08-23T14:36:02Z</time></trkpt>
<trkpt lat="45.96425000" lon="7.22055000"><ele>2416</ele><time>2003-08-23T14:36:15Z</time></trkpt>
<trkpt lat="45.96340000" lon="7.22046670"><ele>2414</ele><time>2003-08-23T14:36:34Z</time></trkpt>
<trkpt lat="45.96303330" lon="7.22035000"><ele>2412</ele><time>2003-08-23T14:36:44Z</time></trkpt>
<trkpt lat="45.96251670" lon="7.22033330"><ele>2410</ele><time>2003-08-23T14:36:57Z</time></trkpt>
<trkpt lat="45.96205000" lon="7.22041670"><ele>2409</ele><time>2003-08-23T14:37:10Z</time></trkpt>
<trkpt lat="45.96156670" lon="7.22035000"><ele>2409</ele><time>2003-08-23T14:37:23Z</time></trkpt>
<trkpt lat="45.96131670" lon="7.22036670"><ele>2408</ele><time>2003-08-23T14:37:33Z</time></trkpt>
<trkpt lat="45.96096670" lon="7.22055000"><ele>2407</ele><time>2003-08-23T14:37:42Z</time></trkpt>
<trkpt lat="45.96066670" lon="7.22063330"><ele>2405</ele><time>2003-08-23T14:37:52Z</time></trkpt>
<trkpt lat="45.96036670" lon="7.22058330"><ele>2404</ele><time>2003-08-23T14:38:01Z</time></trkpt>
<trkpt lat="45.96011670" lon="7.22043330"><ele>2402</ele><time>2003-08-23T14:38:08Z</time></trkpt>
<trkpt lat="45.96013330" lon="7.22033330"><ele>2400</ele><time>2003-08-23T14:38:14Z</time></trkpt>
<trkpt lat="45.96025000" lon="7.22040000"><ele>2399</ele><time>2003-08-23T14:38:17Z</time></trkpt>
<trkpt lat="45.96058330" lon="7.22040000"><ele>2396</ele><time>2003-08-23T14:38:24Z</time></trkpt>
<trkpt lat="45.96151670" lon="7.21976670"><ele>2388</ele><time>2003-08-23T14:38:47Z</time></trkpt>
<trkpt lat="45.96201670" lon="7.21973330"><ele>2382</ele><time>2003-08-23T14:38:57Z</time></trkpt>
<trkpt lat="45.96243330" lon="7.21961670"><ele>2377</ele><time>2003-08-23T14:39:07Z</time></trkpt>
<trkpt lat="45.96236670" lon="7.21946670"><ele>2376</ele><time>2003-08-23T14:39:12Z</time></trkpt>
<trkpt lat="45.96221670" lon="7.21946670"><ele>2374</ele><time>2003-08-23T14:39:16Z</time></trkpt>
<trkpt lat="45.96155000" lon="7.21911670"><ele>2367</ele><time>2003-08-23T14:39:35Z</time></trkpt>
<trkpt lat="45.96126670" lon="7.21900000"><ele>2365</ele><time>2003-08-23T14:39:46Z</time></trkpt>
<trkpt lat="45.96110000" lon="7.21900000"><ele>2362</ele><time>2003-08-23T14:40:53Z</time></trkpt>
<trkpt lat="45.96073330" lon="7.21880000"><ele>2356</ele><time>2003-08-23T14:41:04Z</time></trkpt>
<trkpt lat="45.96066670" lon="7.21868330"><ele>2355</ele><time>2003-08-23T14:41:08Z</time></trkpt>
<trkpt lat="45.96071670" lon="7.21841670"><ele>2353</ele><time>2003-08-23T14:41:15Z</time></trkpt>
<trkpt lat="45.96058330" lon="7.21833330"><ele>2351</ele><time>2003-08-23T14:41:21Z</time></trkpt>
<trkpt lat="45.96030000" lon="7.21845000"><ele>2347</ele><time>2003-08-23T14:41:31Z</time></trkpt>
<trkpt lat="45.96010000" lon="7.21820000"><ele>2343</ele><time>2003-08-23T14:41:40Z</time></trkpt>
<trkpt lat="45.95988330" lon="7.21790000"><ele>2340</ele><time>2003-08-23T14:41:49Z</time></trkpt>
<trkpt lat="45.95968330" lon="7.21780000"><ele>2337</ele><time>2003-08-23T14:41:55Z</time></trkpt>
<trkpt lat="45.95951670" lon="7.21793330"><ele>2334</ele><time>2003-08-23T14:41:59Z</time></trkpt>
<trkpt lat="45.95915000" lon="7.21835000"><ele>2329</ele><time>2003-08-23T14:42:07Z</time></trkpt>
<trkpt lat="45.95885000" lon="7.21840000"><ele>2323</ele><time>2003-08-23T14:42:15Z</time></trkpt>
<trkpt lat="45.95876670" lon="7.21835000"><ele>2322</ele><time>2003-08-23T14:42:17Z</time></trkpt>
<trkpt lat="45.95846670" lon="7.21808330"><ele>2318</ele><time>2003-08-23T14:42:26Z</time></trkpt>
<trkpt lat="45.95838330" lon="7.21796670"><ele>2317</ele><time>2003-08-23T14:42:33Z</time></trkpt>
<trkpt lat="45.95838330" lon="7.21801670"><ele>2316</ele><time>2003-08-23T14:42:43Z</time></trkpt>
<trkpt lat="45.95835000" lon="7.21796670"><ele>2316</ele><time>2003-08-23T14:42:52Z</time></trkpt>
<trkpt lat="45.95820000" lon="7.21795000"><ele>2316</ele><time>2003-08-23T14:43:01Z</time></trkpt>
<trkpt lat="45.95766670" lon="7.21810000"><ele>2310</ele><time>2003-08-23T14:43:25Z</time></trkpt>
<trkpt lat="45.95790000" lon="7.21778330"><ele>2310</ele><time>2003-08-23T14:43:34Z</time></trkpt>
<trkpt lat="45.95833330" lon="7.21726670"><ele>2308</ele><time>2003-08-23T14:43:49Z</time></trkpt>
<trkpt lat="45.95833330" lon="7.21720000"><ele>2307</ele><time>2003-08-23T14:44:28Z</time></trkpt>
<trkpt lat="45.95810000" lon="7.21670000"><ele>2304</ele><time>2003-08-23T14:44:41Z</time></trkpt>
<trkpt lat="45.95776670" lon="7.21638330"><ele>2299</ele><time>2003-08-23T14:44:54Z</time></trkpt>
<trkpt lat="45.95743330" lon="7.21640000"><ele>2293</ele><time>2003-08-23T14:45:05Z</time></trkpt>
<trkpt lat="45.95728330" lon="7.21628330"><ele>2291</ele><time>2003-08-23T14:45:13Z</time></trkpt>
<trkpt lat="45.95720000" lon="7.21628330"><ele>2289</ele><time>2003-08-23T14:45:16Z</time></trkpt>
<trkpt lat="45.95691670" lon="7.21615000"><ele>2286</ele><time>2003-08-23T14:45:27Z</time></trkpt>
<trkpt lat="45.95690000" lon="7.21608330"><ele>2285</ele><time>2003-08-23T14:45:30Z</time></trkpt>
<trkpt lat="45.95705000" lon="7.21613330"><ele>2281</ele><time>2003-08-23T14:45:35Z</time></trkpt>
<trkpt lat="45.95708330" lon="7.21606670"><ele>2279</ele><time>2003-08-23T14:45:39Z</time></trkpt>
<trkpt lat="45.95706670" lon="7.21595000"><ele>2280</ele><time>2003-08-23T14:45:43Z</time></trkpt>
<trkpt lat="45.95691670" lon="7.21573330"><ele>2269</ele><time>2003-08-23T14:46:07Z</time></trkpt>
<trkpt lat="45.95676670" lon="7.21571670"><ele>2256</ele><time>2003-08-23T14:47:46Z</time></trkpt>
<trkpt lat="45.95656670" lon="7.21551670"><ele>2254</ele><time>2003-08-23T14:47:57Z</time></trkpt>
<trkpt lat="45.95611670" lon="7.21535000"><ele>2248</ele><time>2003-08-23T14:48:10Z</time></trkpt>
<trkpt lat="45.95528330" lon="7.21556670"><ele>2249</ele><time>2003-08-23T14:48:51Z</time></trkpt>
<trkpt lat="45.95481670" lon="7.21563330"><ele>2250</ele><time>2003-08-23T14:49:17Z</time></trkpt>
<trkpt lat="45.95456670" lon="7.21561670"><ele>2247</ele><time>2003-08-23T14:49:28Z</time></trkpt>
<trkpt lat="45.95433330" lon="7.21546670"><ele>2246</ele><time>2003-08-23T14:49:32Z</time></trkpt>
<trkpt lat="45.95295000" lon="7.21498330"><ele>2240</ele><time>2003-08-23T14:49:54Z</time></trkpt>
<trkpt lat="45.95286670" lon="7.21498330"><ele>2232</ele><time>2003-08-23T14:51:08Z</time></trkpt>
<trkpt lat="45.95245000" lon="7.21476670"><ele>2230</ele><time>2003-08-23T14:51:15Z</time></trkpt>
<trkpt lat="45.95161670" lon="7.21461670"><ele>2225</ele><time>2003-08-23T14:51:28Z</time></trkpt>
<trkpt lat="45.95065000" lon="7.21428330"><ele>2219</ele><time>2003-08-23T14:51:41Z</time></trkpt>
<trkpt lat="45.94983330" lon="7.21378330"><ele>2216</ele><time>2003-08-23T14:51:49Z</time></trkpt>
<trkpt lat="45.94960000" lon="7.21370000"><ele>2215</ele><time>2003-08-23T14:51:52Z</time></trkpt>
<trkpt lat="45.94880000" lon="7.21401670"><ele>2207</ele><time>2003-08-23T14:52:02Z</time></trkpt>
<trkpt lat="45.94833330" lon="7.21385000"><ele>2201</ele><time>2003-08-23T14:52:07Z</time></trkpt>
<trkpt lat="45.94808330" lon="7.21340000"><ele>2194</ele><time>2003-08-23T14:52:12Z</time></trkpt>
<trkpt lat="45.94770000" lon="7.21300000"><ele>2188</ele><time>2003-08-23T14:52:18Z</time></trkpt>
<trkpt lat="45.94743330" lon="7.21295000"><ele>2183</ele><time>2003-08-23T14:52:22Z</time></trkpt>
<trkpt lat="45.94688330" lon="7.21333330"><ele>2177</ele><time>2003-08-23T14:52:29Z</time></trkpt>
<trkpt lat="45.94673330" lon="7.21340000"><ele>2175</ele><time>2003-08-23T14:52:31Z</time></trkpt>
<trkpt lat="45.94636670" lon="7.21390000"><ele>2169</ele><time>2003-08-23T14:52:37Z</time></trkpt>
<trkpt lat="45.94606670" lon="7.21450000"><ele>2163</ele><time>2003-08-23T14:52:42Z</time></trkpt>
<trkpt lat="45.94571670" lon="7.21475000"><ele>2159</ele><time>2003-08-23T14:52:46Z</time></trkpt>
<trkpt lat="45.94540000" lon="7.21480000"><ele>2157</ele><time>2003-08-23T14:52:50Z</time></trkpt>
<trkpt lat="45.94485000" lon="7.21526670"><ele>2150</ele><time>2003-08-23T14:52:58Z</time></trkpt>
<trkpt lat="45.94475000" lon="7.21531670"><ele>2148</ele><time>2003-08-23T14:53:00Z</time></trkpt>
<trkpt lat="45.94416670" lon="7.21573330"><ele>2142</ele><time>2003-08-23T14:53:08Z</time></trkpt>
<trkpt lat="45.94348330" lon="7.21666670"><ele>2136</ele><time>2003-08-23T14:53:17Z</time></trkpt>
<trkpt lat="45.94303330" lon="7.21705000"><ele>2130</ele><time>2003-08-23T14:53:23Z</time></trkpt>
<trkpt lat="45.94258330" lon="7.21723330"><ele>2126</ele><time>2003-08-23T14:53:28Z</time></trkpt>
<trkpt lat="45.94230000" lon="7.21713330"><ele>2125</ele><time>2003-08-23T14:53:32Z</time></trkpt>
<trkpt lat="45.94221670" lon="7.21673330"><ele>2124</ele><time>2003-08-23T14:53:36Z</time></trkpt>
<trkpt lat="45.94265000" lon="7.21636670"><ele>2122</ele><time>2003-08-23T14:53:43Z</time></trkpt>
<trkpt lat="45.94281670" lon="7.21595000"><ele>2120</ele><time>2003-08-23T14:53:47Z</time></trkpt>
<trkpt lat="45.94293330" lon="7.21495000"><ele>2115</ele><time>2003-08-23T14:53:54Z</time></trkpt>
<trkpt lat="45.94320000" lon="7.21423330"><ele>2112</ele><time>2003-08-23T14:53:59Z</time></trkpt>
<trkpt lat="45.94341670" lon="7.21390000"><ele>2111</ele><time>2003-08-23T14:54:02Z</time></trkpt>
<trkpt lat="45.94376670" lon="7.21285000"><ele>2105</ele><time>2003-08-23T14:54:10Z</time></trkpt>
<trkpt lat="45.94403330" lon="7.21258330"><ele>2101</ele><time>2003-08-23T14:54:15Z</time></trkpt>
<trkpt lat="45.94430000" lon="7.21286670"><ele>2096</ele><time>2003-08-23T14:54:19Z</time></trkpt>
<trkpt lat="45.94483330" lon="7.21311670"><ele>2090</ele><time>2003-08-23T14:54:25Z</time></trkpt>
<trkpt lat="45.94510000" lon="7.21296670"><ele>2089</ele><time>2003-08-23T14:54:29Z</time></trkpt>
<trkpt lat="45.94528330" lon="7.21245000"><ele>2089</ele><time>2003-08-23T14:54:36Z</time></trkpt>
<trkpt lat="45.94543330" lon="7.21148330"><ele>2089</ele><time>2003-08-23T14:54:50Z</time></trkpt>
<trkpt lat="45.94558330" lon="7.21123330"><ele>2086</ele><time>2003-08-23T14:54:55Z</time></trkpt>
<trkpt lat="45.94580000" lon="7.21106670"><ele>2084</ele><time>2003-08-23T14:55:00Z</time></trkpt>
<trkpt lat="45.94606670" lon="7.21100000"><ele>2081</ele><time>2003-08-23T14:55:04Z</time></trkpt>
<trkpt lat="45.94651670" lon="7.21100000"><ele>2075</ele><time>2003-08-23T14:55:10Z</time></trkpt>
<trkpt lat="45.94690000" lon="7.21083330"><ele>2071</ele><time>2003-08-23T14:55:16Z</time></trkpt>
<trkpt lat="45.94803330" lon="7.21071670"><ele>2061</ele><time>2003-08-23T14:55:29Z</time></trkpt>
<trkpt lat="45.94845000" lon="7.21093330"><ele>2058</ele><time>2003-08-23T14:55:35Z</time></trkpt>
<trkpt lat="45.94891670" lon="7.21106670"><ele>2055</ele><time>2003-08-23T14:55:40Z</time></trkpt>
<trkpt lat="45.94950000" lon="7.21100000"><ele>2053</ele><time>2003-08-23T14:55:45Z</time></trkpt>
<trkpt lat="45.94981670" lon="7.21078330"><ele>2048</ele><time>2003-08-23T14:55:48Z</time></trkpt>
<trkpt lat="45.95018330" lon="7.21061670"><ele>2044</ele><time>2003-08-23T14:55:52Z</time></trkpt>
<trkpt lat="45.95011670" lon="7.21048330"><ele>2041</ele><time>2003-08-23T14:55:56Z</time></trkpt>
<trkpt lat="45.94980000" lon="7.21061670"><ele>2037</ele><time>2003-08-23T14:56:02Z</time></trkpt>
<trkpt lat="45.94913330" lon="7.21050000"><ele>2029</ele><time>2003-08-23T14:56:10Z</time></trkpt>
<trkpt lat="45.94871670" lon="7.21038330"><ele>2024</ele><time>2003-08-23T14:56:15Z</time></trkpt>
<trkpt lat="45.94870000" lon="7.21025000"><ele>2022</ele><time>2003-08-23T14:56:20Z</time></trkpt>
<trkpt lat="45.94896670" lon="7.21020000"><ele>2017</ele><time>2003-08-23T14:56:26Z</time></trkpt>
<trkpt lat="45.94883330" lon="7.21011670"><ele>2014</ele><time>2003-08-23T14:56:30Z</time></trkpt>
<trkpt lat="45.94871670" lon="7.20983330"><ele>2012</ele><time>2003-08-23T14:56:35Z</time></trkpt>
<trkpt lat="45.94865000" lon="7.20961670"><ele>2011</ele><time>2003-08-23T14:56:38Z</time></trkpt>
<trkpt lat="45.94870000" lon="7.20941670"><ele>2009</ele><time>2003-08-23T14:56:43Z</time></trkpt>
<trkpt lat="45.94913330" lon="7.20930000"><ele>2003</ele><time>2003-08-23T14:56:52Z</time></trkpt>
<trkpt lat="45.94930000" lon="7.20920000"><ele>2001</ele><time>2003-08-23T14:56:56Z</time></trkpt>
<trkpt lat="45.94951670" lon="7.20885000"><ele>1995</ele><time>2003-08-23T14:57:04Z</time></trkpt>
<trkpt lat="45.94941670" lon="7.20875000"><ele>1994</ele><time>2003-08-23T14:57:08Z</time></trkpt>
<trkpt lat="45.94931670" lon="7.20861670"><ele>1992</ele><time>2003-08-23T14:57:17Z</time></trkpt>
<trkpt lat="45.95013330" lon="7.20808330"><ele>1988</ele><time>2003-08-23T14:57:41Z</time></trkpt>
<trkpt lat="45.95025000" lon="7.20811670"><ele>1988</ele><time>2003-08-23T14:58:04Z</time></trkpt>
<trkpt lat="45.95045000" lon="7.20811670"><ele>1988</ele><time>2003-08-23T14:58:16Z</time></trkpt>
<trkpt lat="45.95048330" lon="7.20810000"><ele>1988</ele><time>2003-08-23T14:58:17Z</time></trkpt>
<trkpt lat="45.95045000" lon="7.20800000"><ele>1987</ele><time>2003-08-23T14:58:21Z</time></trkpt>
<trkpt lat="45.95061670" lon="7.20790000"><ele>1983</ele><time>2003-08-23T14:58:29Z</time></trkpt>
<trkpt lat="45.95188330" lon="7.20790000"><ele>1979</ele><time>2003-08-23T14:59:08Z</time></trkpt>
<trkpt lat="45.95215000" lon="7.20773330"><ele>1977</ele><time>2003-08-23T14:59:16Z</time></trkpt>
<trkpt lat="45.95221670" lon="7.20765000"><ele>1976</ele><time>2003-08-23T14:59:22Z</time></trkpt>
</trkseg></trk></gpx>